Terminal Aerodrome Forecast
Issued by NWS

Home | Current Version | Previous Version | Graphics & Text | Print | Product List | Glossary On
Versions: 1 2 3 4 5 6 7 8 9 10 11 12 13
053
FTUS42 KMHX 251137
TAFPGV
TAF
KPGV 251137Z 2512/2612 VRB03KT P6SM BKN250
     FM251900 36007KT P6SM VCTS SCT025 BKN060CB
     FM252300 05006KT P6SM SCT050 BKN250
     FM260100 06007KT P6SM SCT050
      AMD LTD TO CLD VIS AND WIND=

USA.gov is the U.S. government's official web portal to all federal, state and local government web resources and services.